Time;durP1;ratioP1;P1;durP2;ratioP2;P2;SDS_P1;SDS_P2;PMS_P1;PMS_P2;Temp;Humidity;BMP_temperature;BMP_pressure;BME280_temperature;BME280_humidity;BME280_pressure;Samples;Min_cycle;Max_cycle;Signal;HPM_P1;HPM_P2
2024/03/10 00:01:21;;;;;;;20.58;8.68;;;10.00;99.90;;;;;;5054430;28;20029;-55
2024/03/10 00:03:46;;;;;;;18.75;9.15;;;10.00;99.90;;;;;;5053971;28;20033;-54
2024/03/10 00:06:12;;;;;;;19.55;9.60;;;10.00;99.90;;;;;;5053894;28;20037;-55
2024/03/10 00:08:42;;;;;;;15.98;8.48;;;10.00;99.90;;;;;;5053524;28;20363;-55
2024/03/10 00:11:09;;;;;;;29.73;9.43;;;9.90;99.90;;;;;;5054405;28;20489;-55
2024/03/10 00:13:35;;;;;;;17.10;9.00;;;9.90;99.90;;;;;;5052866;28;20431;-55
2024/03/10 00:16:01;;;;;;;19.33;8.70;;;9.90;99.90;;;;;;5054026;28;20032;-56
2024/03/10 00:18:26;;;;;;;22.65;9.80;;;10.00;99.90;;;;;;5034371;28;20075;-54
2024/03/10 00:20:54;;;;;;;20.05;9.27;;;9.90;99.90;;;;;;5034001;28;20076;-57
2024/03/10 00:23:20;;;;;;;19.20;9.13;;;10.00;99.90;;;;;;5034318;28;20033;-55
2024/03/10 00:25:46;;;;;;;14.18;7.63;;;9.90;99.90;;;;;;5034487;28;20029;-55
2024/03/10 00:28:11;;;;;;;17.77;8.90;;;9.90;99.90;;;;;;5033911;28;20061;-55
2024/03/10 00:30:37;;;;;;;18.73;8.73;;;9.80;99.90;;;;;;5034090;28;20029;-55
2024/03/10 00:33:03;;;;;;;14.10;8.25;;;9.80;99.90;;;;;;5033837;28;20104;-53
2024/03/10 00:35:29;;;;;;;17.67;8.48;;;9.70;99.90;;;;;;5033576;28;20057;-55
2024/03/10 00:37:55;;;;;;;13.80;8.10;;;9.70;99.90;;;;;;5033700;28;20055;-54
2024/03/10 00:40:20;;;;;;;14.50;8.23;;;9.70;99.90;;;;;;5052928;28;20025;-53
2024/03/10 00:42:46;;;;;;;17.50;8.07;;;9.80;99.90;;;;;;5051457;28;20544;-54
2024/03/10 00:45:12;;;;;;;18.25;8.98;;;9.70;99.90;;;;;;5053398;28;20044;-53
2024/03/10 00:47:38;;;;;;;18.13;9.55;;;9.70;99.90;;;;;;5053751;28;20029;-39
2024/03/10 00:50:10;;;;;;;15.65;8.40;;;9.70;99.90;;;;;;5053294;28;20036;-41
2024/03/10 00:52:37;;;;;;;19.63;8.05;;;9.60;99.90;;;;;;5053476;28;20106;-45
2024/03/10 00:55:04;;;;;;;19.40;8.90;;;9.60;99.90;;;;;;5051605;28;20528;-40
2024/03/10 00:57:30;;;;;;;16.85;8.45;;;9.60;99.90;;;;;;5033275;28;20041;-41
2024/03/10 00:59:56;;;;;;;18.02;8.52;;;9.60;99.90;;;;;;5033612;28;20029;-43
2024/03/10 01:02:23;;;;;;;19.38;9.27;;;9.60;99.90;;;;;;5038927;28;20114;-56
2024/03/10 01:04:49;;;;;;;19.55;9.23;;;9.60;99.90;;;;;;5043858;28;20025;-54
2024/03/10 01:07:14;;;;;;;19.77;9.32;;;9.60;99.90;;;;;;5033189;28;20382;-55
2024/03/10 01:09:40;;;;;;;19.17;8.90;;;9.60;99.90;;;;;;5033023;28;20061;-55
2024/03/10 01:12:08;;;;;;;17.48;7.88;;;9.60;99.90;;;;;;5033414;28;20076;-54
2024/03/10 01:14:33;;;;;;;20.50;9.37;;;9.60;99.90;;;;;;5031706;28;20505;-55
2024/03/10 01:17:04;;;;;;;16.40;8.73;;;9.60;99.90;;;;;;5041157;28;20095;-55
2024/03/10 01:19:30;;;;;;;18.55;8.77;;;9.60;99.90;;;;;;5052778;28;20059;-55
2024/03/10 01:21:58;;;;;;;22.52;10.85;;;9.60;99.90;;;;;;5053068;28;20524;-56
2024/03/10 01:24:23;;;;;;;15.85;8.93;;;9.70;99.90;;;;;;5051453;28;20036;-55
2024/03/10 01:26:49;;;;;;;16.42;8.73;;;9.60;99.90;;;;;;5052967;28;20385;-55
2024/03/10 01:29:18;;;;;;;20.80;9.25;;;9.60;99.90;;;;;;5049559;28;20025;-54
2024/03/10 01:31:47;;;;;;;17.80;9.05;;;9.60;99.90;;;;;;5032623;28;20025;-55
2024/03/10 01:34:12;;;;;;;18.13;8.90;;;9.50;99.90;;;;;;5033023;28;20495;-55
2024/03/10 01:36:38;;;;;;;18.25;9.35;;;9.50;99.90;;;;;;5032585;28;20036;-54
2024/03/10 01:39:04;;;;;;;18.23;8.38;;;9.40;99.90;;;;;;5032871;28;20064;-41
2024/03/10 01:41:31;;;;;;;18.00;8.80;;;9.40;99.90;;;;;;5032796;28;20033;-42
2024/03/10 01:43:57;;;;;;;18.27;8.40;;;9.30;99.90;;;;;;5032532;28;20043;-40
2024/03/10 01:46:24;;;;;;;21.27;10.90;;;9.30;99.90;;;;;;5035913;28;20033;-43
2024/03/10 01:48:51;;;;;;;14.57;6.63;;;9.20;99.90;;;;;;5052249;28;20555;-40
2024/03/10 01:51:18;;;;;;;20.92;9.05;;;9.20;99.90;;;;;;5051375;28;20476;-45
2024/03/10 01:53:45;;;;;;;18.88;8.65;;;9.20;99.90;;;;;;5052331;28;20037;-43
2024/03/10 01:56:11;;;;;;;23.40;10.00;;;9.10;99.90;;;;;;5051145;28;20366;-46
2024/03/10 01:58:38;;;;;;;19.55;9.40;;;9.10;99.90;;;;;;5052073;28;20029;-40
2024/03/10 02:01:03;;;;;;;21.90;9.65;;;9.00;99.90;;;;;;5042386;28;20491;-54
2024/03/10 02:03:33;;;;;;;22.27;8.88;;;9.00;99.90;;;;;;5036038;28;20068;-55
2024/03/10 02:05:59;;;;;;;17.92;9.40;;;9.10;99.90;;;;;;5051047;28;20413;-54
2024/03/10 02:08:26;;;;;;;21.13;9.98;;;9.10;99.90;;;;;;5049943;28;20424;-55
2024/03/10 02:10:52;;;;;;;19.20;8.88;;;9.00;99.90;;;;;;5052379;28;20021;-55
2024/03/10 02:13:19;;;;;;;18.70;9.82;;;9.00;99.90;;;;;;5052357;28;20108;-57
2024/03/10 02:16:02;;;;;;;17.70;9.15;;;9.00;99.90;;;;;;5052210;28;20021;-54
2024/03/10 02:18:28;;;;;;;19.80;8.90;;;9.00;99.90;;;;;;5031050;28;20058;-56
2024/03/10 02:20:55;;;;;;;19.30;9.43;;;9.10;99.90;;;;;;5040113;28;20513;-54
2024/03/10 02:23:23;;;;;;;18.58;9.13;;;9.10;99.90;;;;;;5052170;28;20520;-55
2024/03/10 02:25:52;;;;;;;17.77;9.60;;;9.20;99.90;;;;;;5051462;28;20501;-58
2024/03/10 02:28:23;;;;;;;15.45;8.55;;;9.30;99.90;;;;;;5052233;28;20389;-54
2024/03/10 02:30:58;;;;;;;21.25;10.05;;;9.30;99.90;;;;;;5052052;28;20469;-52
2024/03/10 02:47:12;;;;;;;17.52;9.40;;;9.10;99.90;;;;;;5041875;28;20039;-55
2024/03/10 02:49:42;;;;;;;17.27;9.10;;;9.10;99.90;;;;;;5032972;28;20371;-54
2024/03/10 02:52:12;;;;;;;21.35;9.43;;;9.00;99.90;;;;;;5031622;28;20033;-56
2024/03/10 02:54:39;;;;;;;25.77;10.85;;;9.10;99.90;;;;;;5035185;28;20477;-57
2024/03/10 02:57:06;;;;;;;21.67;10.18;;;9.10;99.90;;;;;;5035144;28;20132;-55
2024/03/10 02:59:32;;;;;;;19.02;9.15;;;9.00;99.90;;;;;;5042847;28;20029;-54
2024/03/10 03:01:58;;;;;;;19.38;10.88;;;9.10;99.90;;;;;;5031701;28;20394;-53
2024/03/10 03:04:28;;;;;;;24.00;10.00;;;9.10;99.90;;;;;;5030624;28;20029;-55
2024/03/10 03:06:54;;;;;;;22.48;10.60;;;9.00;99.90;;;;;;5036198;28;20474;-52
2024/03/10 03:09:20;;;;;;;27.67;11.70;;;8.90;99.90;;;;;;5051549;28;20025;-51
2024/03/10 03:11:47;;;;;;;25.63;10.90;;;9.00;99.90;;;;;;5033647;28;20482;-55
2024/03/10 03:14:13;;;;;;;20.45;9.07;;;8.90;99.90;;;;;;5032554;28;20486;-55
2024/03/10 03:16:40;;;;;;;19.33;10.10;;;8.90;99.90;;;;;;5032732;28;20040;-54
2024/03/10 03:19:06;;;;;;;23.10;9.95;;;8.90;99.90;;;;;;5033990;28;20083;-54
2024/03/10 03:21:33;;;;;;;19.05;10.00;;;8.90;99.90;;;;;;5042701;28;20017;-56
2024/03/10 03:23:59;;;;;;;27.23;10.33;;;8.90;99.90;;;;;;5054946;28;20025;-54
2024/03/10 03:26:25;;;;;;;21.27;10.60;;;8.90;99.90;;;;;;5054075;28;20029;-54
2024/03/10 03:28:50;;;;;;;26.23;11.48;;;8.80;99.90;;;;;;5055131;28;20025;-56
2024/03/10 03:31:19;;;;;;;19.83;10.27;;;8.80;99.90;;;;;;5050578;28;20026;-54
2024/03/10 03:33:45;;;;;;;20.65;10.35;;;8.90;99.90;;;;;;5035641;28;20029;-55
2024/03/10 03:36:12;;;;;;;23.58;10.77;;;8.90;99.90;;;;;;5034715;28;20522;-41
2024/03/10 03:38:39;;;;;;;25.52;10.27;;;8.80;99.90;;;;;;5033570;28;20079;-40
2024/03/10 03:41:06;;;;;;;32.00;12.52;;;8.80;99.90;;;;;;5042212;28;20087;-42
2024/03/10 03:43:32;;;;;;;19.50;10.40;;;8.70;99.90;;;;;;5033200;28;20407;-44
2024/03/10 03:45:57;;;;;;;24.20;11.20;;;8.80;99.90;;;;;;5034664;28;20029;-41
2024/03/10 03:48:23;;;;;;;24.42;11.75;;;8.80;99.90;;;;;;5034463;28;20037;-44
2024/03/10 03:50:49;;;;;;;23.52;10.35;;;8.70;99.90;;;;;;5035187;28;20068;-40
2024/03/10 03:53:14;;;;;;;23.80;11.02;;;8.70;99.90;;;;;;5042086;28;20025;-41
2024/03/10 03:55:41;;;;;;;22.15;11.20;;;8.70;99.90;;;;;;5051611;28;20496;-42
2024/03/10 03:58:08;;;;;;;22.65;11.10;;;8.60;99.90;;;;;;5046953;28;20468;-56
2024/03/10 04:00:34;;;;;;;23.77;10.55;;;8.60;99.90;;;;;;5040143;28;20088;-44
2024/03/10 04:03:00;;;;;;;26.45;12.05;;;8.50;99.90;;;;;;5035706;28;20063;-40
2024/03/10 04:05:25;;;;;;;18.40;10.30;;;8.50;99.90;;;;;;5034245;28;20037;-56
2024/03/10 04:07:51;;;;;;;24.95;11.40;;;8.40;99.90;;;;;;5046982;28;20048;-51
2024/03/10 04:10:18;;;;;;;23.90;11.23;;;8.30;99.90;;;;;;5054175;28;20413;-54
2024/03/10 04:12:43;;;;;;;23.80;11.45;;;8.30;99.90;;;;;;5054065;28;20025;-56
2024/03/10 04:15:09;;;;;;;24.80;11.38;;;8.30;99.90;;;;;;5054000;28;20397;-55
2024/03/10 04:17:35;;;;;;;25.10;12.13;;;8.30;99.90;;;;;;5054224;28;20102;-55
2024/03/10 04:20:02;;;;;;;31.13;11.05;;;8.30;99.90;;;;;;5048355;28;20029;-55
2024/03/10 04:22:28;;;;;;;22.15;10.85;;;8.20;99.90;;;;;;5051283;28;20029;-58
2024/03/10 04:24:54;;;;;;;32.47;11.32;;;8.20;99.90;;;;;;5050100;28;20086;-55
2024/03/10 04:27:20;;;;;;;20.45;10.65;;;8.20;99.90;;;;;;5033629;28;20100;-55
2024/03/10 04:29:46;;;;;;;25.45;11.70;;;8.20;99.90;;;;;;5032855;28;20444;-55
2024/03/10 04:32:12;;;;;;;22.30;11.23;;;8.10;99.90;;;;;;5047893;28;20029;-56
2024/03/10 04:34:38;;;;;;;24.80;10.68;;;8.10;99.90;;;;;;5053335;28;20064;-51
2024/03/10 04:37:08;;;;;;;24.52;11.02;;;8.20;99.90;;;;;;5035157;28;20029;-55
2024/03/10 04:39:35;;;;;;;25.55;11.18;;;8.10;99.90;;;;;;5033618;28;20138;-55
2024/03/10 04:42:00;;;;;;;23.98;11.48;;;8.10;99.90;;;;;;5036020;28;20516;-54
2024/03/10 04:44:26;;;;;;;24.55;10.95;;;8.00;99.90;;;;;;5032476;28;20033;-53
2024/03/10 04:46:52;;;;;;;27.27;11.82;;;8.00;99.90;;;;;;5033449;28;20036;-43
2024/03/10 04:49:18;;;;;;;23.48;10.73;;;8.10;99.90;;;;;;5032940;28;20026;-42
2024/03/10 04:51:43;;;;;;;23.48;10.95;;;8.10;99.90;;;;;;5033697;28;20067;-41
2024/03/10 04:54:09;;;;;;;26.23;11.48;;;8.10;99.90;;;;;;5033371;28;20486;-52
2024/03/10 04:56:36;;;;;;;22.25;10.73;;;8.00;99.90;;;;;;5041171;28;20136;-47
2024/03/10 04:59:03;;;;;;;27.30;12.00;;;8.10;99.90;;;;;;5053031;28;20037;-41
2024/03/10 05:01:28;;;;;;;27.88;11.65;;;8.20;99.90;;;;;;5052263;28;20029;-54
2024/03/10 05:03:54;;;;;;;24.73;10.77;;;8.10;99.90;;;;;;5053248;28;20363;-55
2024/03/10 05:06:20;;;;;;;22.33;10.68;;;8.10;99.90;;;;;;5051373;28;20029;-55
2024/03/10 05:08:46;;;;;;;23.85;11.18;;;8.00;99.90;;;;;;5033301;28;20026;-55
2024/03/10 05:11:15;;;;;;;19.35;10.38;;;8.00;99.90;;;;;;5032829;28;20026;-53
2024/03/10 05:13:41;;;;;;;26.92;10.43;;;8.00;99.90;;;;;;5033463;28;20514;-54
2024/03/10 05:16:07;;;;;;;26.40;11.43;;;8.00;99.90;;;;;;5032930;28;20029;-55
2024/03/10 05:18:33;;;;;;;23.25;10.68;;;7.90;99.90;;;;;;5047737;28;20075;-55
2024/03/10 05:20:59;;;;;;;24.02;10.80;;;8.00;99.90;;;;;;5052055;28;20482;-41
2024/03/10 05:23:27;;;;;;;24.90;10.88;;;7.90;99.90;;;;;;5052619;28;20063;-44
2024/03/10 05:25:53;;;;;;;21.38;10.25;;;8.00;99.90;;;;;;5051327;28;20068;-40
2024/03/10 05:28:18;;;;;;;26.42;11.27;;;7.90;99.90;;;;;;5032750;28;20450;-46
2024/03/10 05:30:44;;;;;;;21.77;10.93;;;7.80;99.90;;;;;;5033330;28;20037;-43
2024/03/10 05:33:11;;;;;;;22.13;11.18;;;7.80;99.90;;;;;;5033594;28;20032;-43
2024/03/10 05:35:37;;;;;;;24.88;11.20;;;7.80;99.90;;;;;;5032550;28;20506;-42
2024/03/10 05:38:04;;;;;;;22.73;10.25;;;7.80;99.90;;;;;;5043494;28;20482;-43
2024/03/10 05:40:29;;;;;;;24.90;11.15;;;7.80;99.90;;;;;;5052114;28;20122;-55
2024/03/10 05:42:55;;;;;;;23.80;11.13;;;7.70;99.90;;;;;;5037002;28;20034;-56
2024/03/10 05:45:21;;;;;;;29.33;12.32;;;7.70;99.90;;;;;;5032501;28;20441;-58
2024/03/10 05:47:50;;;;;;;25.33;10.15;;;7.70;99.90;;;;;;5033657;28;20063;-44
2024/03/10 05:50:16;;;;;;;24.83;11.27;;;7.70;99.90;;;;;;5052293;28;20025;-55
2024/03/10 05:52:42;;;;;;;22.38;10.73;;;7.80;99.90;;;;;;5050547;28;20500;-55
2024/03/10 05:55:08;;;;;;;23.67;11.40;;;7.80;99.90;;;;;;5051027;28;20028;-55
2024/03/10 05:57:34;;;;;;;25.63;11.43;;;7.80;99.90;;;;;;5041759;28;20080;-57
2024/03/10 05:59:59;;;;;;;23.48;10.88;;;7.80;99.90;;;;;;5032207;28;20029;-55
2024/03/10 06:02:25;;;;;;;23.77;11.02;;;7.70;99.90;;;;;;5032277;28;20057;-46
2024/03/10 06:04:51;;;;;;;24.05;11.82;;;7.60;99.90;;;;;;5034209;28;20033;-45
2024/03/10 06:07:16;;;;;;;23.15;10.10;;;7.70;99.90;;;;;;5044399;28;20052;-42
2024/03/10 06:09:42;;;;;;;21.55;11.15;;;7.70;99.90;;;;;;5032141;28;20095;-42
2024/03/10 06:12:08;;;;;;;21.80;10.07;;;7.70;99.90;;;;;;5036855;28;20021;-43
2024/03/10 06:14:34;;;;;;;21.70;10.25;;;7.70;99.90;;;;;;5052061;28;20055;-46
2024/03/10 06:17:00;;;;;;;19.38;9.90;;;7.80;99.90;;;;;;5051095;28;20556;-44
2024/03/10 06:27:42;;;;;;;21.00;10.57;;;7.80;99.90;;;;;;5041355;28;20095;-56
2024/03/10 06:30:11;;;;;;;21.52;9.65;;;7.70;99.90;;;;;;5051916;28;20037;-56
2024/03/10 06:32:37;;;;;;;25.88;10.63;;;7.70;99.90;;;;;;5051862;28;20029;-57
2024/03/10 06:35:06;;;;;;;26.75;11.02;;;7.70;99.90;;;;;;5050626;28;20053;-53
2024/03/10 06:37:33;;;;;;;23.58;9.73;;;7.70;99.90;;;;;;5047130;28;20018;-53
2024/03/10 06:39:59;;;;;;;23.15;11.30;;;7.70;99.90;;;;;;5040414;28;20026;-58
2024/03/10 06:42:25;;;;;;;27.15;11.27;;;7.70;99.90;;;;;;5031707;28;20025;-54
2024/03/10 06:44:51;;;;;;;20.30;9.93;;;7.70;99.90;;;;;;5032128;28;20047;-54
2024/03/10 06:47:16;;;;;;;27.77;11.63;;;7.70;99.90;;;;;;5032010;28;20025;-53
2024/03/10 06:49:42;;;;;;;24.23;10.05;;;7.70;99.90;;;;;;5031781;28;20025;-54
2024/03/10 06:52:08;;;;;;;21.67;10.35;;;7.70;99.90;;;;;;5033568;28;20025;-54
2024/03/10 06:54:34;;;;;;;21.55;10.00;;;7.80;99.90;;;;;;5035850;28;20492;-56
2024/03/10 06:57:00;;;;;;;26.35;11.20;;;7.80;99.90;;;;;;5038553;28;20502;-41
2024/03/10 06:59:26;;;;;;;23.63;11.05;;;7.80;99.90;;;;;;5055398;28;20029;-42
2024/03/10 07:01:54;;;;;;;17.77;9.00;;;7.80;99.90;;;;;;5055425;28;20060;-40
2024/03/10 07:04:19;;;;;;;;;;;7.80;99.90;;;;;;5053714;28;20048;-40
2024/03/10 07:06:49;;;;;;;27.13;9.57;;;7.90;99.90;;;;;;5054349;28;19916;-43
2024/03/10 07:09:15;;;;;;;17.45;8.88;;;7.90;99.90;;;;;;5055517;28;20024;-42
2024/03/10 07:11:44;;;;;;;19.67;10.65;;;8.00;99.90;;;;;;5053551;28;20017;-40
2024/03/10 07:14:12;;;;;;;25.58;10.27;;;8.00;99.90;;;;;;5041706;28;20371;-43
2024/03/10 07:16:38;;;;;;;23.20;11.35;;;8.00;99.90;;;;;;5035233;28;20423;-40
2024/03/10 07:19:03;;;;;;;23.45;10.25;;;8.10;99.90;;;;;;5054849;28;20510;-40
2024/03/10 07:21:29;;;;;;;23.15;10.18;;;8.00;99.90;;;;;;5055094;28;20096;-41
2024/03/10 07:23:54;;;;;;;23.00;10.40;;;8.10;99.90;;;;;;5053911;28;20082;-41
2024/03/10 07:26:20;;;;;;;25.33;11.15;;;8.20;99.90;;;;;;5054866;28;20021;-40
2024/03/10 07:28:46;;;;;;;23.75;10.23;;;8.30;99.90;;;;;;5048486;28;20108;-42
2024/03/10 07:31:12;;;;;;;29.90;10.18;;;8.40;99.90;;;;;;5047928;28;20033;-45
2024/03/10 07:33:38;;;;;;;22.90;9.88;;;8.40;99.90;;;;;;5034911;28;20055;-42
2024/03/10 07:36:04;;;;;;;21.52;10.10;;;8.60;99.90;;;;;;5034709;28;20046;-40
2024/03/10 07:38:30;;;;;;;21.67;10.85;;;8.60;99.90;;;;;;5034676;28;20075;-42
2024/03/10 07:40:57;;;;;;;24.33;9.45;;;8.70;99.90;;;;;;5038449;28;20384;-41
2024/03/10 07:43:23;;;;;;;22.42;10.77;;;8.70;99.90;;;;;;5047887;28;20021;-42
2024/03/10 07:45:49;;;;;;;21.02;9.40;;;8.80;99.90;;;;;;5033353;28;20029;-43
2024/03/10 07:48:16;;;;;;;27.33;10.75;;;8.80;99.90;;;;;;5048009;28;20572;-40
2024/03/10 07:50:42;;;;;;;21.27;9.23;;;8.80;99.90;;;;;;5053305;28;20036;-47
2024/03/10 07:53:11;;;;;;;23.38;9.60;;;8.90;99.90;;;;;;5034849;28;20067;-45
2024/03/10 07:55:37;;;;;;;19.92;9.73;;;8.90;99.90;;;;;;5034732;28;20497;-44
2024/03/10 07:58:06;;;;;;;18.58;9.43;;;9.00;99.90;;;;;;5043674;28;20032;-44
2024/03/10 08:00:32;;;;;;;19.85;9.43;;;9.00;99.90;;;;;;5036735;28;20604;-41
2024/03/10 08:02:58;;;;;;;22.70;10.05;;;9.00;99.90;;;;;;5033910;28;20096;-44
2024/03/10 08:05:25;;;;;;;18.60;8.75;;;9.00;99.90;;;;;;5034755;28;20022;-40
2024/03/10 08:07:52;;;;;;;19.65;8.57;;;9.00;99.90;;;;;;5034352;28;20025;-43
2024/03/10 08:10:18;;;;;;;19.08;9.13;;;9.00;99.90;;;;;;5034479;28;20045;-44
2024/03/10 08:12:46;;;;;;;21.80;10.68;;;9.10;99.90;;;;;;5032879;28;20104;-44
2024/03/10 08:15:12;;;;;;;17.33;8.70;;;9.10;99.90;;;;;;5034362;28;20561;-50
2024/03/10 08:17:38;;;;;;;26.58;10.32;;;9.20;99.90;;;;;;5033331;28;20462;-43
2024/03/10 08:20:08;;;;;;;23.52;9.57;;;9.20;99.90;;;;;;5032772;28;20029;-43
2024/03/10 08:22:37;;;;;;;19.85;9.73;;;9.30;99.90;;;;;;5035754;28;20541;-42
2024/03/10 08:25:06;;;;;;;15.98;8.65;;;9.30;99.90;;;;;;5052111;28;20099;-42
2024/03/10 08:27:36;;;;;;;19.40;10.00;;;9.40;99.90;;;;;;5053729;28;20029;-41
2024/03/10 08:30:03;;;;;;;18.20;8.98;;;9.50;99.90;;;;;;5039796;28;20026;-40
2024/03/10 08:32:30;;;;;;;24.10;10.02;;;9.50;99.90;;;;;;5048177;28;20515;-52
2024/03/10 08:34:56;;;;;;;20.45;8.93;;;9.60;99.90;;;;;;5049455;28;20042;-41
2024/03/10 08:37:22;;;;;;;17.95;9.43;;;9.60;99.90;;;;;;5040991;28;20041;-40
2024/03/10 08:39:48;;;;;;;19.27;9.32;;;9.70;99.90;;;;;;5046670;28;20025;-41
2024/03/10 08:42:16;;;;;;;16.23;9.02;;;9.80;99.90;;;;;;5041423;28;20028;-41
2024/03/10 08:44:42;;;;;;;22.60;9.77;;;9.80;99.90;;;;;;5053613;28;20523;-44
2024/03/10 08:47:08;;;;;;;16.40;8.55;;;9.80;99.90;;;;;;5042054;28;20021;-42
2024/03/10 08:49:34;;;;;;;19.23;9.18;;;10.00;99.90;;;;;;5033400;28;20078;-43
2024/03/10 08:52:06;;;;;;;14.73;8.43;;;10.10;99.90;;;;;;5033457;28;20033;-43
2024/03/10 08:54:32;;;;;;;16.40;9.07;;;10.10;99.90;;;;;;5033715;28;20033;-43
2024/03/10 08:56:57;;;;;;;15.70;8.40;;;10.20;99.90;;;;;;5042410;28;20033;-44
2024/03/10 08:59:24;;;;;;;20.08;9.38;;;10.20;99.90;;;;;;5033216;28;20040;-54
2024/03/10 09:01:51;;;;;;;18.33;9.25;;;10.30;99.90;;;;;;5051032;28;20489;-41
2024/03/10 09:04:17;;;;;;;19.05;9.90;;;10.30;99.90;;;;;;5037213;28;20425;-43
2024/03/10 09:06:43;;;;;;;20.83;8.30;;;10.40;99.90;;;;;;5032523;28;20031;-40
2024/03/10 09:09:12;;;;;;;16.75;8.05;;;10.50;99.90;;;;;;5032780;28;20470;-41
2024/03/10 09:11:38;;;;;;;18.45;8.90;;;10.50;99.90;;;;;;5036429;28;20506;-52
2024/03/10 09:14:03;;;;;;;19.58;8.18;;;10.50;99.90;;;;;;5040389;28;20029;-42
2024/03/10 09:16:29;;;;;;;15.55;8.18;;;10.60;99.90;;;;;;5032850;28;20031;-44
2024/03/10 09:18:55;;;;;;;24.52;9.15;;;10.60;99.90;;;;;;5032798;28;20437;-53
2024/03/10 09:21:20;;;;;;;15.65;8.20;;;10.60;99.90;;;;;;5033618;28;20057;-55
2024/03/10 09:23:46;;;;;;;16.30;7.82;;;10.60;99.90;;;;;;5032744;28;20017;-55
2024/03/10 09:26:13;;;;;;;17.38;8.10;;;10.70;99.90;;;;;;5032627;28;20100;-44
2024/03/10 09:28:44;;;;;;;17.07;8.90;;;10.70;99.90;;;;;;5034611;28;20029;-44
2024/03/10 09:31:14;;;;;;;16.85;9.45;;;10.80;99.90;;;;;;5052629;28;20018;-43
2024/03/10 09:33:44;;;;;;;15.43;7.80;;;10.90;99.90;;;;;;5051825;28;20032;-47
2024/03/10 09:36:10;;;;;;;17.98;9.25;;;10.90;99.90;;;;;;5052338;28;20033;-47
2024/03/10 09:38:36;;;;;;;17.52;8.85;;;11.00;99.90;;;;;;5041504;28;20033;-47
2024/03/10 09:41:05;;;;;;;19.25;9.73;;;11.00;99.90;;;;;;5052175;28;20028;-41
2024/03/10 09:43:33;;;;;;;20.80;8.95;;;11.00;99.90;;;;;;5050228;28;20465;-42
2024/03/10 09:45:59;;;;;;;17.27;8.20;;;11.00;99.90;;;;;;5033079;28;20040;-49
2024/03/10 09:48:25;;;;;;;19.30;8.73;;;11.00;99.90;;;;;;5032428;28;20021;-59
2024/03/10 09:50:52;;;;;;;19.85;7.90;;;11.10;99.90;;;;;;5032387;28;20017;-54
2024/03/10 09:53:18;;;;;;;22.95;7.38;;;11.10;99.90;;;;;;5032683;28;20385;-55
2024/03/10 09:55:45;;;;;;;16.75;8.05;;;11.20;99.90;;;;;;5032567;28;20096;-55
2024/03/10 09:58:17;;;;;;;16.08;7.63;;;11.30;99.90;;;;;;5038634;28;20441;-56
2024/03/10 10:00:45;;;;;;;16.60;8.00;;;11.30;99.90;;;;;;5047826;28;20029;-55
2024/03/10 10:03:12;;;;;;;19.95;8.85;;;11.40;99.90;;;;;;5032713;28;20072;-54
2024/03/10 10:05:53;;;;;;;16.23;8.27;;;11.60;99.90;;;;;;5032130;28;20028;-53
2024/03/10 10:08:19;;;;;;;25.30;8.48;;;11.60;99.90;;;;;;5032277;28;20467;-55
2024/03/10 10:10:52;;;;;;;15.52;8.20;;;11.80;99.90;;;;;;5033239;28;20025;-53
2024/03/10 10:13:27;;;;;;;17.77;8.65;;;11.90;99.90;;;;;;5031909;28;20061;-53
2024/03/10 10:15:53;;;;;;;14.00;7.32;;;12.00;99.90;;;;;;5032184;28;20021;-55
2024/03/10 10:18:19;;;;;;;21.88;8.43;;;12.10;99.90;;;;;;5032133;28;20032;-55
2024/03/10 10:20:54;;;;;;;18.48;8.82;;;12.10;99.90;;;;;;5031045;28;20095;-57
2024/03/10 10:23:23;;;;;;;16.27;8.63;;;12.10;99.90;;;;;;5032363;28;20017;-60
2024/03/10 10:26:05;;;;;;;14.65;7.72;;;12.20;99.90;;;;;;5033807;28;20065;-60
2024/03/10 10:28:33;;;;;;;18.48;8.90;;;12.30;99.90;;;;;;5036234;28;20028;-42
2024/03/10 10:31:15;;;;;;;19.50;9.63;;;12.40;99.90;;;;;;5054781;28;20032;-43
2024/03/10 10:33:47;;;;;;;17.77;8.48;;;12.50;99.90;;;;;;5055873;28;20025;-44
2024/03/10 10:36:13;;;;;;;15.70;8.45;;;12.60;99.90;;;;;;5040455;28;20052;-44
2024/03/10 10:38:45;;;;;;;15.23;7.95;;;12.70;99.90;;;;;;5036593;28;20044;-44
2024/03/10 10:41:12;;;;;;;22.33;8.60;;;12.80;99.90;;;;;;5035770;28;20037;-44
2024/03/10 10:43:39;;;;;;;14.00;7.78;;;12.80;99.90;;;;;;5036275;28;20541;-44
2024/03/10 10:46:12;;;;;;;18.92;8.57;;;12.80;99.90;;;;;;5035731;28;20022;-40
2024/03/10 10:48:41;;;;;;;19.20;8.55;;;12.90;99.90;;;;;;5035947;28;20103;-41
2024/03/10 10:51:08;;;;;;;16.58;8.75;;;12.90;99.90;;;;;;5035619;28;20501;-45
2024/03/10 10:53:38;;;;;;;15.60;8.77;;;13.00;99.90;;;;;;5035676;28;20033;-46
2024/03/10 10:56:04;;;;;;;21.95;8.68;;;13.10;99.90;;;;;;5040469;28;20071;-40
2024/03/10 10:58:33;;;;;;;14.02;8.25;;;13.20;99.90;;;;;;5034364;28;20548;-40
2024/03/10 11:01:04;;;;;;;14.77;8.10;;;13.30;99.90;;;;;;5034000;28;20025;-53
2024/03/10 11:03:36;;;;;;;21.23;8.32;;;13.40;99.90;;;;;;5035679;28;20044;-54
2024/03/10 11:06:01;;;;;;;15.90;7.65;;;13.40;99.90;;;;;;5035394;28;20034;-53
2024/03/10 11:08:31;;;;;;;18.35;8.18;;;13.50;99.90;;;;;;5035284;28;20026;-60
2024/03/10 11:10:56;;;;;;;20.33;8.70;;;13.50;99.90;;;;;;5039047;28;20513;-55
2024/03/10 11:13:23;;;;;;;15.98;8.05;;;13.50;99.90;;;;;;5055170;28;20053;-54
2024/03/10 11:16:17;;;;;;;15.15;7.80;;;13.70;99.90;;;;;;5055152;28;20029;-53
2024/03/10 11:18:44;;;;;;;21.08;9.43;;;13.70;99.90;;;;;;5054908;28;20139;-52
2024/03/10 11:21:13;;;;;;;14.63;7.47;;;13.70;99.90;;;;;;5037845;28;20435;-60
2024/03/10 11:23:50;;;;;;;14.48;8.40;;;13.60;99.90;;;;;;5053554;28;20080;-53
2024/03/10 11:26:17;;;;;;;15.60;9.25;;;13.70;99.90;;;;;;5040251;28;20030;-57
2024/03/10 11:28:57;;;;;;;20.20;8.97;;;13.70;99.90;;;;;;5043948;28;20389;-51
2024/03/10 11:31:23;;;;;;;23.77;9.70;;;13.80;99.90;;;;;;5040266;28;20060;-53
2024/03/10 11:33:59;;;;;;;21.55;8.60;;;13.80;99.90;;;;;;5037775;28;20095;-55
2024/03/10 11:36:32;;;;;;;19.63;9.25;;;13.80;99.90;;;;;;5054562;28;20041;-57
2024/03/10 11:39:01;;;;;;;16.50;9.07;;;13.90;99.90;;;;;;5054002;28;20032;-55
2024/03/10 11:41:27;;;;;;;16.08;9.27;;;14.10;99.90;;;;;;5040318;28;20482;-53
2024/03/10 11:43:53;;;;;;;17.23;8.32;;;14.20;99.90;;;;;;5035628;28;20037;-55
2024/03/10 11:46:25;;;;;;;17.00;8.80;;;14.20;99.90;;;;;;5048303;28;20029;-54
2024/03/10 11:48:57;;;;;;;13.55;7.57;;;14.20;99.90;;;;;;5051934;28;20025;-55
2024/03/10 11:51:30;;;;;;;14.75;8.30;;;14.20;99.90;;;;;;5034570;28;20035;-46
2024/03/10 11:53:56;;;;;;;19.65;8.95;;;14.20;99.90;;;;;;5034571;28;20023;-47
2024/03/10 11:56:22;;;;;;;17.15;8.55;;;14.30;99.90;;;;;;5035229;28;20079;-42
2024/03/10 11:58:50;;;;;;;14.93;8.60;;;14.50;99.90;;;;;;5034651;28;20512;-43
2024/03/10 12:01:16;;;;;;;20.70;9.70;;;14.70;99.90;;;;;;5034715;28;20029;-42
2024/03/10 12:03:45;;;;;;;18.48;8.50;;;14.80;99.90;;;;;;5051283;28;20543;-41
2024/03/10 12:06:11;;;;;;;16.20;8.93;;;14.90;99.90;;;;;;5052485;28;20112;-40
2024/03/10 12:08:37;;;;;;;19.67;9.52;;;15.00;99.90;;;;;;5054098;28;20032;-44
2024/03/10 12:11:04;;;;;;;20.52;9.02;;;15.00;99.90;;;;;;5043888;28;20182;-43
2024/03/10 12:13:30;;;;;;;16.40;8.57;;;15.10;99.90;;;;;;5034012;28;20025;-50
2024/03/10 12:16:01;;;;;;;18.77;9.02;;;15.00;99.90;;;;;;5034270;28;20470;-55
2024/03/10 12:18:30;;;;;;;21.30;8.45;;;15.10;99.90;;;;;;5034197;28;20359;-53
2024/03/10 12:20:59;;;;;;;18.50;8.80;;;15.00;99.90;;;;;;5034519;28;20440;-52
2024/03/10 12:23:24;;;;;;;14.43;8.40;;;15.10;99.90;;;;;;5050547;28;20025;-54
2024/03/10 12:25:51;;;;;;;15.70;8.02;;;15.30;99.90;;;;;;5044397;28;20238;-56
2024/03/10 12:28:18;;;;;;;14.60;8.13;;;15.20;99.90;;;;;;5033757;28;20022;-55
2024/03/10 12:30:45;;;;;;;18.30;9.00;;;15.10;99.90;;;;;;5034100;28;20573;-42
2024/03/10 12:33:11;;;;;;;15.60;8.18;;;15.10;99.90;;;;;;5033695;28;20025;-46
2024/03/10 12:35:37;;;;;;;19.00;8.70;;;15.10;99.90;;;;;;5033557;28;20471;-46
2024/03/10 12:38:07;;;;;;;14.70;8.45;;;15.20;99.90;;;;;;5053360;28;20018;-44
2024/03/10 12:40:36;;;;;;;19.52;8.27;;;15.30;99.90;;;;;;5047541;28;20029;-42
2024/03/10 12:43:02;;;;;;;15.63;8.90;;;15.40;99.90;;;;;;5043331;28;20033;-41
2024/03/10 12:45:30;;;;;;;14.18;8.10;;;15.40;99.90;;;;;;5052751;28;20500;-44
2024/03/10 12:47:57;;;;;;;12.57;7.70;;;15.50;99.90;;;;;;5052876;28;20032;-54
2024/03/10 12:50:24;;;;;;;16.48;9.15;;;15.40;99.90;;;;;;5051885;28;20067;-55
2024/03/10 12:52:50;;;;;;;16.77;8.50;;;15.20;99.90;;;;;;5053141;28;20539;-54
2024/03/10 12:55:18;;;;;;;17.55;9.18;;;15.10;99.90;;;;;;5051267;28;20271;-53
2024/03/10 12:57:44;;;;;;;16.15;8.40;;;15.00;99.90;;;;;;5048196;28;20029;-54
2024/03/10 13:02:47;;;;;;;19.30;8.55;;;15.00;99.90;;;;;;5033199;28;20033;-54
2024/03/10 13:05:13;;;;;;;18.63;9.00;;;15.20;99.90;;;;;;5032956;28;20025;-50